sensor_id;sensor_type;location;lat;lon;timestamp;P1;durP1;ratioP1;P2;durP2;ratioP2
4821;SDS011;2425;47.794;13.068;2023-10-31T00:01:48;1.07;;;1.07;;
4821;SDS011;2425;47.794;13.068;2023-10-31T00:04:16;0.80;;;0.80;;
4821;SDS011;2425;47.794;13.068;2023-10-31T00:06:42;0.80;;;0.80;;
4821;SDS011;2425;47.794;13.068;2023-10-31T00:09:09;1.80;;;1.00;;
4821;SDS011;2425;47.794;13.068;2023-10-31T00:11:36;0.70;;;0.70;;
4821;SDS011;2425;47.794;13.068;2023-10-31T00:14:03;0.83;;;0.83;;
4821;SDS011;2425;47.794;13.068;2023-10-31T00:16:30;0.83;;;0.83;;
4821;SDS011;2425;47.794;13.068;2023-10-31T00:18:57;0.97;;;0.90;;
4821;SDS011;2425;47.794;13.068;2023-10-31T00:21:25;0.90;;;0.90;;
4821;SDS011;2425;47.794;13.068;2023-10-31T00:23:51;0.80;;;0.80;;
4821;SDS011;2425;47.794;13.068;2023-10-31T00:26:18;0.80;;;0.80;;
4821;SDS011;2425;47.794;13.068;2023-10-31T00:28:45;0.80;;;0.80;;
4821;SDS011;2425;47.794;13.068;2023-10-31T00:31:12;1.00;;;1.00;;
4821;SDS011;2425;47.794;13.068;2023-10-31T00:33:39;0.80;;;0.80;;
4821;SDS011;2425;47.794;13.068;2023-10-31T00:36:06;0.90;;;0.90;;
4821;SDS011;2425;47.794;13.068;2023-10-31T00:38:35;0.77;;;0.77;;
4821;SDS011;2425;47.794;13.068;2023-10-31T00:41:02;0.93;;;0.93;;
4821;SDS011;2425;47.794;13.068;2023-10-31T00:43:29;1.00;;;1.00;;
4821;SDS011;2425;47.794;13.068;2023-10-31T00:45:55;0.83;;;0.83;;
4821;SDS011;2425;47.794;13.068;2023-10-31T00:48:22;0.70;;;0.70;;
4821;SDS011;2425;47.794;13.068;2023-10-31T00:50:49;1.20;;;1.20;;
4821;SDS011;2425;47.794;13.068;2023-10-31T00:53:15;0.90;;;0.90;;
4821;SDS011;2425;47.794;13.068;2023-10-31T00:55:44;0.87;;;0.87;;
4821;SDS011;2425;47.794;13.068;2023-10-31T00:58:10;0.80;;;0.80;;
4821;SDS011;2425;47.794;13.068;2023-10-31T01:00:37;1.10;;;1.10;;
4821;SDS011;2425;47.794;13.068;2023-10-31T01:03:04;0.83;;;0.83;;
4821;SDS011;2425;47.794;13.068;2023-10-31T01:05:31;1.23;;;1.03;;
4821;SDS011;2425;47.794;13.068;2023-10-31T01:07:57;0.83;;;0.83;;
4821;SDS011;2425;47.794;13.068;2023-10-31T01:10:24;0.90;;;0.90;;
4821;SDS011;2425;47.794;13.068;2023-10-31T01:12:52;1.10;;;1.00;;
4821;SDS011;2425;47.794;13.068;2023-10-31T01:15:19;0.90;;;0.90;;
4821;SDS011;2425;47.794;13.068;2023-10-31T01:17:45;0.87;;;0.87;;
4821;SDS011;2425;47.794;13.068;2023-10-31T01:20:12;0.80;;;0.80;;
4821;SDS011;2425;47.794;13.068;2023-10-31T01:22:39;0.67;;;0.67;;
4821;SDS011;2425;47.794;13.068;2023-10-31T01:25:06;0.80;;;0.80;;
4821;SDS011;2425;47.794;13.068;2023-10-31T01:27:32;6.17;;;0.90;;
4821;SDS011;2425;47.794;13.068;2023-10-31T01:30:00;0.80;;;0.80;;
4821;SDS011;2425;47.794;13.068;2023-10-31T01:32:28;0.70;;;0.70;;
4821;SDS011;2425;47.794;13.068;2023-10-31T01:34:55;0.73;;;0.73;;
4821;SDS011;2425;47.794;13.068;2023-10-31T01:37:22;0.97;;;0.97;;
4821;SDS011;2425;47.794;13.068;2023-10-31T01:39:48;0.70;;;0.70;;
4821;SDS011;2425;47.794;13.068;2023-10-31T01:42:15;0.70;;;0.70;;
4821;SDS011;2425;47.794;13.068;2023-10-31T01:44:42;0.73;;;0.73;;
4821;SDS011;2425;47.794;13.068;2023-10-31T01:47:10;0.80;;;0.80;;
4821;SDS011;2425;47.794;13.068;2023-10-31T01:49:36;0.87;;;0.87;;
4821;SDS011;2425;47.794;13.068;2023-10-31T01:52:03;0.80;;;0.80;;
4821;SDS011;2425;47.794;13.068;2023-10-31T01:54:30;0.70;;;0.70;;
4821;SDS011;2425;47.794;13.068;2023-10-31T01:56:58;0.70;;;0.70;;
4821;SDS011;2425;47.794;13.068;2023-10-31T01:59:25;0.70;;;0.70;;
4821;SDS011;2425;47.794;13.068;2023-10-31T02:01:52;0.77;;;0.77;;
4821;SDS011;2425;47.794;13.068;2023-10-31T02:04:20;1.33;;;0.70;;
4821;SDS011;2425;47.794;13.068;2023-10-31T02:06:47;0.73;;;0.73;;
4821;SDS011;2425;47.794;13.068;2023-10-31T02:09:14;0.60;;;0.60;;
4821;SDS011;2425;47.794;13.068;2023-10-31T02:11:40;0.80;;;0.80;;
4821;SDS011;2425;47.794;13.068;2023-10-31T02:14:07;0.60;;;0.60;;
4821;SDS011;2425;47.794;13.068;2023-10-31T02:16:34;0.63;;;0.63;;
4821;SDS011;2425;47.794;13.068;2023-10-31T02:19:00;0.77;;;0.77;;
4821;SDS011;2425;47.794;13.068;2023-10-31T02:21:28;0.70;;;0.70;;
4821;SDS011;2425;47.794;13.068;2023-10-31T02:23:58;0.70;;;0.70;;
4821;SDS011;2425;47.794;13.068;2023-10-31T02:26:28;0.67;;;0.67;;
4821;SDS011;2425;47.794;13.068;2023-10-31T02:28:55;0.80;;;0.80;;
4821;SDS011;2425;47.794;13.068;2023-10-31T02:31:21;0.50;;;0.50;;
4821;SDS011;2425;47.794;13.068;2023-10-31T02:33:48;0.80;;;0.80;;
4821;SDS011;2425;47.794;13.068;2023-10-31T02:36:15;0.87;;;0.87;;
4821;SDS011;2425;47.794;13.068;2023-10-31T02:38:42;1.03;;;0.93;;
4821;SDS011;2425;47.794;13.068;2023-10-31T02:41:10;0.63;;;0.63;;
4821;SDS011;2425;47.794;13.068;2023-10-31T02:43:36;0.60;;;0.60;;
4821;SDS011;2425;47.794;13.068;2023-10-31T02:46:03;0.80;;;0.80;;
4821;SDS011;2425;47.794;13.068;2023-10-31T02:48:30;0.97;;;0.97;;
4821;SDS011;2425;47.794;13.068;2023-10-31T02:51:03;0.80;;;0.80;;
4821;SDS011;2425;47.794;13.068;2023-10-31T02:53:29;0.70;;;0.70;;
4821;SDS011;2425;47.794;13.068;2023-10-31T02:55:56;0.60;;;0.60;;
4821;SDS011;2425;47.794;13.068;2023-10-31T02:58:24;0.90;;;0.90;;
4821;SDS011;2425;47.794;13.068;2023-10-31T03:00:51;0.80;;;0.80;;
4821;SDS011;2425;47.794;13.068;2023-10-31T03:03:17;0.73;;;0.73;;
4821;SDS011;2425;47.794;13.068;2023-10-31T03:05:44;0.60;;;0.60;;
4821;SDS011;2425;47.794;13.068;2023-10-31T03:08:11;0.70;;;0.70;;
4821;SDS011;2425;47.794;13.068;2023-10-31T03:10:38;0.80;;;0.80;;
4821;SDS011;2425;47.794;13.068;2023-10-31T03:13:05;0.50;;;0.50;;
4821;SDS011;2425;47.794;13.068;2023-10-31T03:15:33;0.67;;;0.67;;
4821;SDS011;2425;47.794;13.068;2023-10-31T03:17:59;0.80;;;0.80;;
4821;SDS011;2425;47.794;13.068;2023-10-31T03:20:27;0.70;;;0.70;;
4821;SDS011;2425;47.794;13.068;2023-10-31T03:22:54;0.60;;;0.60;;
4821;SDS011;2425;47.794;13.068;2023-10-31T03:25:21;0.60;;;0.60;;
4821;SDS011;2425;47.794;13.068;2023-10-31T03:27:47;0.60;;;0.60;;
4821;SDS011;2425;47.794;13.068;2023-10-31T03:30:14;0.67;;;0.67;;
4821;SDS011;2425;47.794;13.068;2023-10-31T03:32:42;0.63;;;0.63;;
4821;SDS011;2425;47.794;13.068;2023-10-31T03:35:09;0.70;;;0.70;;
4821;SDS011;2425;47.794;13.068;2023-10-31T03:37:35;0.73;;;0.73;;
4821;SDS011;2425;47.794;13.068;2023-10-31T03:40:07;0.70;;;0.70;;
4821;SDS011;2425;47.794;13.068;2023-10-31T03:42:34;0.70;;;0.70;;
4821;SDS011;2425;47.794;13.068;2023-10-31T03:45:01;0.50;;;0.50;;
4821;SDS011;2425;47.794;13.068;2023-10-31T03:47:28;0.80;;;0.80;;
4821;SDS011;2425;47.794;13.068;2023-10-31T03:49:56;0.87;;;0.50;;
4821;SDS011;2425;47.794;13.068;2023-10-31T03:52:23;0.73;;;0.73;;
4821;SDS011;2425;47.794;13.068;2023-10-31T03:54:49;0.80;;;0.80;;
4821;SDS011;2425;47.794;13.068;2023-10-31T03:57:16;0.80;;;0.80;;
4821;SDS011;2425;47.794;13.068;2023-10-31T03:59:43;0.77;;;0.77;;
4821;SDS011;2425;47.794;13.068;2023-10-31T04:02:10;0.67;;;0.67;;
4821;SDS011;2425;47.794;13.068;2023-10-31T04:04:36;0.60;;;0.60;;
4821;SDS011;2425;47.794;13.068;2023-10-31T04:07:04;0.60;;;0.60;;
4821;SDS011;2425;47.794;13.068;2023-10-31T04:09:32;1.60;;;0.60;;
4821;SDS011;2425;47.794;13.068;2023-10-31T04:11:59;0.80;;;0.80;;
4821;SDS011;2425;47.794;13.068;2023-10-31T04:14:26;0.60;;;0.60;;
4821;SDS011;2425;47.794;13.068;2023-10-31T04:16:53;0.70;;;0.70;;
4821;SDS011;2425;47.794;13.068;2023-10-31T04:19:19;0.60;;;0.60;;
4821;SDS011;2425;47.794;13.068;2023-10-31T04:21:46;0.70;;;0.70;;
4821;SDS011;2425;47.794;13.068;2023-10-31T04:24:14;0.57;;;0.57;;
4821;SDS011;2425;47.794;13.068;2023-10-31T04:26:41;0.60;;;0.60;;
4821;SDS011;2425;47.794;13.068;2023-10-31T04:29:07;0.60;;;0.60;;
4821;SDS011;2425;47.794;13.068;2023-10-31T04:31:34;0.80;;;0.80;;
4821;SDS011;2425;47.794;13.068;2023-10-31T04:34:01;0.60;;;0.60;;
4821;SDS011;2425;47.794;13.068;2023-10-31T04:36:27;0.60;;;0.60;;
4821;SDS011;2425;47.794;13.068;2023-10-31T04:38:54;0.50;;;0.50;;
4821;SDS011;2425;47.794;13.068;2023-10-31T04:41:22;0.80;;;0.80;;
4821;SDS011;2425;47.794;13.068;2023-10-31T04:43:49;0.77;;;0.77;;
4821;SDS011;2425;47.794;13.068;2023-10-31T04:46:16;0.70;;;0.70;;
4821;SDS011;2425;47.794;13.068;2023-10-31T04:48:42;0.50;;;0.50;;
4821;SDS011;2425;47.794;13.068;2023-10-31T04:51:09;0.60;;;0.60;;
4821;SDS011;2425;47.794;13.068;2023-10-31T04:53:36;0.63;;;0.63;;
4821;SDS011;2425;47.794;13.068;2023-10-31T04:56:03;0.60;;;0.60;;
4821;SDS011;2425;47.794;13.068;2023-10-31T04:58:31;0.60;;;0.60;;
4821;SDS011;2425;47.794;13.068;2023-10-31T05:00:58;0.70;;;0.70;;
4821;SDS011;2425;47.794;13.068;2023-10-31T05:03:25;0.57;;;0.57;;
4821;SDS011;2425;47.794;13.068;2023-10-31T05:05:51;0.70;;;0.70;;
4821;SDS011;2425;47.794;13.068;2023-10-31T05:08:18;0.60;;;0.60;;
4821;SDS011;2425;47.794;13.068;2023-10-31T05:10:45;0.70;;;0.70;;
4821;SDS011;2425;47.794;13.068;2023-10-31T05:13:12;0.70;;;0.70;;
4821;SDS011;2425;47.794;13.068;2023-10-31T05:15:40;0.57;;;0.57;;
4821;SDS011;2425;47.794;13.068;2023-10-31T05:18:07;0.50;;;0.50;;
4821;SDS011;2425;47.794;13.068;2023-10-31T05:20:34;0.60;;;0.60;;
4821;SDS011;2425;47.794;13.068;2023-10-31T05:23:00;0.70;;;0.70;;
4821;SDS011;2425;47.794;13.068;2023-10-31T05:25:27;0.50;;;0.50;;
4821;SDS011;2425;47.794;13.068;2023-10-31T05:27:54;0.60;;;0.60;;
4821;SDS011;2425;47.794;13.068;2023-10-31T05:30:21;0.67;;;0.67;;
4821;SDS011;2425;47.794;13.068;2023-10-31T05:32:49;0.43;;;0.43;;
4821;SDS011;2425;47.794;13.068;2023-10-31T05:35:16;0.60;;;0.60;;
4821;SDS011;2425;47.794;13.068;2023-10-31T05:37:43;0.70;;;0.70;;
4821;SDS011;2425;47.794;13.068;2023-10-31T05:40:10;0.50;;;0.50;;
4821;SDS011;2425;47.794;13.068;2023-10-31T05:42:37;0.80;;;0.80;;
4821;SDS011;2425;47.794;13.068;2023-10-31T05:45:05;0.60;;;0.60;;
4821;SDS011;2425;47.794;13.068;2023-10-31T05:47:32;0.50;;;0.50;;
4821;SDS011;2425;47.794;13.068;2023-10-31T05:50:00;0.60;;;0.60;;
4821;SDS011;2425;47.794;13.068;2023-10-31T05:52:27;0.50;;;0.50;;
4821;SDS011;2425;47.794;13.068;2023-10-31T05:54:54;0.67;;;0.67;;
4821;SDS011;2425;47.794;13.068;2023-10-31T05:57:21;0.63;;;0.63;;
4821;SDS011;2425;47.794;13.068;2023-10-31T05:59:47;0.60;;;0.60;;
4821;SDS011;2425;47.794;13.068;2023-10-31T06:02:14;0.50;;;0.50;;
4821;SDS011;2425;47.794;13.068;2023-10-31T06:04:41;0.53;;;0.53;;
4821;SDS011;2425;47.794;13.068;2023-10-31T06:07:09;0.50;;;0.50;;
4821;SDS011;2425;47.794;13.068;2023-10-31T06:09:35;0.80;;;0.80;;
4821;SDS011;2425;47.794;13.068;2023-10-31T06:12:02;0.70;;;0.60;;
4821;SDS011;2425;47.794;13.068;2023-10-31T06:14:30;0.83;;;0.60;;
4821;SDS011;2425;47.794;13.068;2023-10-31T06:16:57;0.40;;;0.40;;
4821;SDS011;2425;47.794;13.068;2023-10-31T06:19:24;0.40;;;0.40;;
4821;SDS011;2425;47.794;13.068;2023-10-31T06:21:51;0.70;;;0.70;;
4821;SDS011;2425;47.794;13.068;2023-10-31T06:24:19;0.40;;;0.40;;
4821;SDS011;2425;47.794;13.068;2023-10-31T06:26:46;0.60;;;0.60;;
4821;SDS011;2425;47.794;13.068;2023-10-31T06:29:13;0.47;;;0.47;;
4821;SDS011;2425;47.794;13.068;2023-10-31T06:31:39;0.50;;;0.50;;
4821;SDS011;2425;47.794;13.068;2023-10-31T06:34:06;0.50;;;0.50;;
4821;SDS011;2425;47.794;13.068;2023-10-31T06:36:33;0.60;;;0.60;;
4821;SDS011;2425;47.794;13.068;2023-10-31T06:38:59;0.60;;;0.60;;
4821;SDS011;2425;47.794;13.068;2023-10-31T06:41:27;0.60;;;0.60;;
4821;SDS011;2425;47.794;13.068;2023-10-31T06:43:54;0.50;;;0.50;;
4821;SDS011;2425;47.794;13.068;2023-10-31T06:46:21;0.40;;;0.40;;
4821;SDS011;2425;47.794;13.068;2023-10-31T06:48:47;0.50;;;0.50;;
4821;SDS011;2425;47.794;13.068;2023-10-31T06:51:14;0.50;;;0.50;;
4821;SDS011;2425;47.794;13.068;2023-10-31T06:53:41;0.50;;;0.50;;
4821;SDS011;2425;47.794;13.068;2023-10-31T06:56:07;0.50;;;0.50;;
4821;SDS011;2425;47.794;13.068;2023-10-31T06:58:35;0.50;;;0.50;;
4821;SDS011;2425;47.794;13.068;2023-10-31T07:01:02;0.50;;;0.50;;
4821;SDS011;2425;47.794;13.068;2023-10-31T07:03:29;0.40;;;0.40;;
4821;SDS011;2425;47.794;13.068;2023-10-31T07:05:57;0.50;;;0.50;;
4821;SDS011;2425;47.794;13.068;2023-10-31T07:08:24;0.50;;;0.50;;
4821;SDS011;2425;47.794;13.068;2023-10-31T07:10:51;0.50;;;0.50;;
4821;SDS011;2425;47.794;13.068;2023-10-31T07:13:17;0.40;;;0.40;;
4821;SDS011;2425;47.794;13.068;2023-10-31T07:15:45;0.40;;;0.40;;
4821;SDS011;2425;47.794;13.068;2023-10-31T07:18:12;0.47;;;0.47;;
4821;SDS011;2425;47.794;13.068;2023-10-31T07:20:39;0.40;;;0.40;;
4821;SDS011;2425;47.794;13.068;2023-10-31T07:23:05;0.40;;;0.40;;
4821;SDS011;2425;47.794;13.068;2023-10-31T07:25:32;0.57;;;0.57;;
4821;SDS011;2425;47.794;13.068;2023-10-31T07:27:59;0.60;;;0.60;;
4821;SDS011;2425;47.794;13.068;2023-10-31T07:30:25;0.60;;;0.60;;
4821;SDS011;2425;47.794;13.068;2023-10-31T07:32:54;1.80;;;0.60;;
4821;SDS011;2425;47.794;13.068;2023-10-31T07:35:21;0.40;;;0.40;;
4821;SDS011;2425;47.794;13.068;2023-10-31T07:37:48;0.60;;;0.60;;
4821;SDS011;2425;47.794;13.068;2023-10-31T07:40:14;0.57;;;0.57;;
4821;SDS011;2425;47.794;13.068;2023-10-31T07:42:41;0.70;;;0.57;;
4821;SDS011;2425;47.794;13.068;2023-10-31T07:45:09;0.40;;;0.40;;
4821;SDS011;2425;47.794;13.068;2023-10-31T07:47:36;0.47;;;0.47;;
4821;SDS011;2425;47.794;13.068;2023-10-31T07:50:04;0.90;;;0.40;;
4821;SDS011;2425;47.794;13.068;2023-10-31T07:52:31;0.50;;;0.50;;
4821;SDS011;2425;47.794;13.068;2023-10-31T07:54:58;1.90;;;0.50;;
4821;SDS011;2425;47.794;13.068;2023-10-31T07:57:24;1.37;;;0.60;;
4821;SDS011;2425;47.794;13.068;2023-10-31T07:59:51;1.37;;;0.70;;
4821;SDS011;2425;47.794;13.068;2023-10-31T08:02:18;0.40;;;0.40;;
4821;SDS011;2425;47.794;13.068;2023-10-31T08:04:44;1.07;;;0.53;;
4821;SDS011;2425;47.794;13.068;2023-10-31T08:07:12;0.67;;;0.50;;
4821;SDS011;2425;47.794;13.068;2023-10-31T08:09:39;0.50;;;0.50;;
4821;SDS011;2425;47.794;13.068;2023-10-31T08:12:06;0.40;;;0.40;;
4821;SDS011;2425;47.794;13.068;2023-10-31T08:14:33;0.50;;;0.50;;
4821;SDS011;2425;47.794;13.068;2023-10-31T08:17:00;0.60;;;0.50;;
4821;SDS011;2425;47.794;13.068;2023-10-31T08:19:26;0.60;;;0.60;;
4821;SDS011;2425;47.794;13.068;2023-10-31T08:21:53;0.40;;;0.40;;
4821;SDS011;2425;47.794;13.068;2023-10-31T08:24:21;0.50;;;0.50;;
4821;SDS011;2425;47.794;13.068;2023-10-31T08:26:48;0.60;;;0.60;;
4821;SDS011;2425;47.794;13.068;2023-10-31T08:29:14;1.37;;;0.80;;
4821;SDS011;2425;47.794;13.068;2023-10-31T08:31:41;0.77;;;0.50;;
4821;SDS011;2425;47.794;13.068;2023-10-31T08:34:08;0.90;;;0.60;;
4821;SDS011;2425;47.794;13.068;2023-10-31T08:36:35;0.50;;;0.50;;
4821;SDS011;2425;47.794;13.068;2023-10-31T08:39:02;0.50;;;0.50;;
4821;SDS011;2425;47.794;13.068;2023-10-31T08:41:31;0.50;;;0.50;;
4821;SDS011;2425;47.794;13.068;2023-10-31T08:43:57;0.50;;;0.50;;
4821;SDS011;2425;47.794;13.068;2023-10-31T08:46:24;0.40;;;0.40;;
4821;SDS011;2425;47.794;13.068;2023-10-31T08:48:51;0.50;;;0.50;;
4821;SDS011;2425;47.794;13.068;2023-10-31T08:51:18;0.70;;;0.60;;
4821;SDS011;2425;47.794;13.068;2023-10-31T08:53:44;0.97;;;0.60;;
4821;SDS011;2425;47.794;13.068;2023-10-31T08:56:11;0.50;;;0.50;;
4821;SDS011;2425;47.794;13.068;2023-10-31T08:58:39;0.30;;;0.30;;
4821;SDS011;2425;47.794;13.068;2023-10-31T09:01:06;0.50;;;0.50;;
4821;SDS011;2425;47.794;13.068;2023-10-31T09:03:33;0.60;;;0.60;;
4821;SDS011;2425;47.794;13.068;2023-10-31T09:05:59;0.83;;;0.47;;
4821;SDS011;2425;47.794;13.068;2023-10-31T09:08:27;0.47;;;0.47;;
4821;SDS011;2425;47.794;13.068;2023-10-31T09:10:53;0.50;;;0.50;;
4821;SDS011;2425;47.794;13.068;2023-10-31T09:13:20;0.57;;;0.40;;
4821;SDS011;2425;47.794;13.068;2023-10-31T09:15:48;0.93;;;0.53;;
4821;SDS011;2425;47.794;13.068;2023-10-31T09:18:15;0.30;;;0.30;;
4821;SDS011;2425;47.794;13.068;2023-10-31T09:20:42;3.33;;;0.60;;
4821;SDS011;2425;47.794;13.068;2023-10-31T09:23:09;0.50;;;0.50;;
4821;SDS011;2425;47.794;13.068;2023-10-31T09:25:35;0.50;;;0.50;;
4821;SDS011;2425;47.794;13.068;2023-10-31T09:28:02;0.53;;;0.40;;
4821;SDS011;2425;47.794;13.068;2023-10-31T09:30:29;0.60;;;0.60;;
4821;SDS011;2425;47.794;13.068;2023-10-31T09:32:57;0.50;;;0.50;;
4821;SDS011;2425;47.794;13.068;2023-10-31T09:35:23;0.57;;;0.57;;
4821;SDS011;2425;47.794;13.068;2023-10-31T09:37:51;0.60;;;0.60;;
4821;SDS011;2425;47.794;13.068;2023-10-31T09:40:18;0.50;;;0.50;;
4821;SDS011;2425;47.794;13.068;2023-10-31T09:42:45;1.80;;;0.57;;
4821;SDS011;2425;47.794;13.068;2023-10-31T09:45:12;0.70;;;0.70;;
4821;SDS011;2425;47.794;13.068;2023-10-31T09:47:39;0.50;;;0.50;;
4821;SDS011;2425;47.794;13.068;2023-10-31T09:50:08;1.93;;;0.57;;
4821;SDS011;2425;47.794;13.068;2023-10-31T09:52:36;0.60;;;0.60;;
4821;SDS011;2425;47.794;13.068;2023-10-31T09:55:03;0.60;;;0.60;;
4821;SDS011;2425;47.794;13.068;2023-10-31T09:57:31;0.40;;;0.40;;
4821;SDS011;2425;47.794;13.068;2023-10-31T09:59:58;0.53;;;0.53;;
4821;SDS011;2425;47.794;13.068;2023-10-31T10:02:25;0.70;;;0.70;;
4821;SDS011;2425;47.794;13.068;2023-10-31T10:04:52;0.57;;;0.57;;
4821;SDS011;2425;47.794;13.068;2023-10-31T10:07:20;3.03;;;0.50;;
4821;SDS011;2425;47.794;13.068;2023-10-31T10:09:47;0.60;;;0.60;;
4821;SDS011;2425;47.794;13.068;2023-10-31T10:12:13;0.60;;;0.47;;
4821;SDS011;2425;47.794;13.068;2023-10-31T10:14:41;0.50;;;0.50;;
4821;SDS011;2425;47.794;13.068;2023-10-31T10:17:13;0.60;;;0.60;;
4821;SDS011;2425;47.794;13.068;2023-10-31T10:19:41;0.50;;;0.50;;
4821;SDS011;2425;47.794;13.068;2023-10-31T10:22:08;0.60;;;0.60;;
4821;SDS011;2425;47.794;13.068;2023-10-31T10:24:38;0.60;;;0.60;;
4821;SDS011;2425;47.794;13.068;2023-10-31T10:27:06;0.60;;;0.60;;
4821;SDS011;2425;47.794;13.068;2023-10-31T10:29:33;0.73;;;0.73;;
4821;SDS011;2425;47.794;13.068;2023-10-31T10:32:00;0.70;;;0.70;;
4821;SDS011;2425;47.794;13.068;2023-10-31T10:34:26;1.00;;;0.67;;
4821;SDS011;2425;47.794;13.068;2023-10-31T10:36:53;0.90;;;0.90;;
4821;SDS011;2425;47.794;13.068;2023-10-31T10:39:22;1.10;;;1.10;;
4821;SDS011;2425;47.794;13.068;2023-10-31T10:41:52;1.20;;;1.20;;
4821;SDS011;2425;47.794;13.068;2023-10-31T10:44:20;1.30;;;1.20;;
4821;SDS011;2425;47.794;13.068;2023-10-31T10:46:52;1.30;;;1.30;;
4821;SDS011;2425;47.794;13.068;2023-10-31T10:49:20;1.20;;;1.10;;
4821;SDS011;2425;47.794;13.068;2023-10-31T10:51:52;1.20;;;1.20;;
4821;SDS011;2425;47.794;13.068;2023-10-31T10:54:23;1.33;;;1.33;;
4821;SDS011;2425;47.794;13.068;2023-10-31T10:56:59;1.97;;;1.60;;
4821;SDS011;2425;47.794;13.068;2023-10-31T10:59:33;4.23;;;2.33;;
4821;SDS011;2425;47.794;13.068;2023-10-31T11:02:05;2.40;;;2.30;;
4821;SDS011;2425;47.794;13.068;2023-10-31T11:04:32;2.50;;;2.30;;
4821;SDS011;2425;47.794;13.068;2023-10-31T11:07:00;2.77;;;2.30;;
4821;SDS011;2425;47.794;13.068;2023-10-31T11:09:28;2.40;;;2.30;;
4821;SDS011;2425;47.794;13.068;2023-10-31T11:11:57;2.40;;;2.20;;
4821;SDS011;2425;47.794;13.068;2023-10-31T11:14:23;2.30;;;2.20;;
4821;SDS011;2425;47.794;13.068;2023-10-31T11:16:52;3.30;;;2.47;;
4821;SDS011;2425;47.794;13.068;2023-10-31T11:19:20;2.23;;;2.13;;
4821;SDS011;2425;47.794;13.068;2023-10-31T11:21:52;2.90;;;2.47;;
4821;SDS011;2425;47.794;13.068;2023-10-31T11:24:20;5.77;;;2.30;;
4821;SDS011;2425;47.794;13.068;2023-10-31T11:26:50;2.13;;;2.03;;
4821;SDS011;2425;47.794;13.068;2023-10-31T11:29:18;2.30;;;2.20;;
4821;SDS011;2425;47.794;13.068;2023-10-31T11:31:45;2.43;;;2.33;;
4821;SDS011;2425;47.794;13.068;2023-10-31T11:34:13;2.63;;;2.43;;
4821;SDS011;2425;47.794;13.068;2023-10-31T11:36:42;2.13;;;2.03;;
4821;SDS011;2425;47.794;13.068;2023-10-31T11:39:12;2.50;;;2.30;;
4821;SDS011;2425;47.794;13.068;2023-10-31T11:41:39;3.00;;;2.37;;
4821;SDS011;2425;47.794;13.068;2023-10-31T11:44:06;2.17;;;2.07;;
4821;SDS011;2425;47.794;13.068;2023-10-31T11:46:34;2.33;;;2.23;;
4821;SDS011;2425;47.794;13.068;2023-10-31T11:49:01;2.13;;;2.03;;
4821;SDS011;2425;47.794;13.068;2023-10-31T11:51:30;4.83;;;2.60;;
4821;SDS011;2425;47.794;13.068;2023-10-31T11:53:57;2.10;;;1.90;;
4821;SDS011;2425;47.794;13.068;2023-10-31T11:56:25;3.27;;;2.40;;
4821;SDS011;2425;47.794;13.068;2023-10-31T11:58:55;2.07;;;2.00;;
4821;SDS011;2425;47.794;13.068;2023-10-31T12:01:22;2.47;;;2.37;;
4821;SDS011;2425;47.794;13.068;2023-10-31T12:03:52;2.30;;;2.20;;
4821;SDS011;2425;47.794;13.068;2023-10-31T12:06:18;2.60;;;1.87;;
4821;SDS011;2425;47.794;13.068;2023-10-31T12:08:46;2.20;;;2.10;;
4821;SDS011;2425;47.794;13.068;2023-10-31T12:11:14;1.80;;;1.70;;
4821;SDS011;2425;47.794;13.068;2023-10-31T12:13:51;2.23;;;2.13;;
4821;SDS011;2425;47.794;13.068;2023-10-31T12:16:18;2.20;;;2.00;;
4821;SDS011;2425;47.794;13.068;2023-10-31T12:18:45;2.90;;;2.10;;
4821;SDS011;2425;47.794;13.068;2023-10-31T12:21:33;2.20;;;2.03;;
4821;SDS011;2425;47.794;13.068;2023-10-31T12:24:02;1.90;;;1.67;;
4821;SDS011;2425;47.794;13.068;2023-10-31T12:26:29;2.00;;;1.90;;
4821;SDS011;2425;47.794;13.068;2023-10-31T12:29:05;1.97;;;1.90;;
4821;SDS011;2425;47.794;13.068;2023-10-31T12:31:38;1.77;;;1.70;;
4821;SDS011;2425;47.794;13.068;2023-10-31T12:34:07;1.40;;;1.40;;
4821;SDS011;2425;47.794;13.068;2023-10-31T12:36:34;1.77;;;1.67;;
4821;SDS011;2425;47.794;13.068;2023-10-31T12:39:02;2.97;;;2.30;;
4821;SDS011;2425;47.794;13.068;2023-10-31T12:41:29;2.00;;;1.83;;
4821;SDS011;2425;47.794;13.068;2023-10-31T12:43:56;2.20;;;2.10;;
4821;SDS011;2425;47.794;13.068;2023-10-31T12:46:26;3.80;;;1.63;;
4821;SDS011;2425;47.794;13.068;2023-10-31T12:48:54;6.53;;;1.90;;
4821;SDS011;2425;47.794;13.068;2023-10-31T12:51:22;1.90;;;1.80;;
4821;SDS011;2425;47.794;13.068;2023-10-31T12:53:49;2.73;;;2.03;;
4821;SDS011;2425;47.794;13.068;2023-10-31T12:59:02;4.90;;;2.20;;
4821;SDS011;2425;47.794;13.068;2023-10-31T13:01:29;2.40;;;1.93;;
4821;SDS011;2425;47.794;13.068;2023-10-31T13:03:57;2.07;;;1.97;;
4821;SDS011;2425;47.794;13.068;2023-10-31T13:06:25;3.80;;;2.00;;
4821;SDS011;2425;47.794;13.068;2023-10-31T13:08:54;2.80;;;1.80;;
4821;SDS011;2425;47.794;13.068;2023-10-31T13:11:21;2.20;;;2.07;;
4821;SDS011;2425;47.794;13.068;2023-10-31T13:13:50;2.00;;;1.90;;
4821;SDS011;2425;47.794;13.068;2023-10-31T13:16:17;1.90;;;1.33;;
4821;SDS011;2425;47.794;13.068;2023-10-31T13:18:44;10.50;;;1.80;;
4821;SDS011;2425;47.794;13.068;2023-10-31T13:21:11;1.60;;;1.37;;
4821;SDS011;2425;47.794;13.068;2023-10-31T13:23:41;1.90;;;1.80;;
4821;SDS011;2425;47.794;13.068;2023-10-31T13:26:10;2.70;;;1.60;;
4821;SDS011;2425;47.794;13.068;2023-10-31T13:28:36;2.10;;;2.00;;
4821;SDS011;2425;47.794;13.068;2023-10-31T13:31:04;1.90;;;1.80;;
4821;SDS011;2425;47.794;13.068;2023-10-31T13:33:31;1.70;;;1.60;;
4821;SDS011;2425;47.794;13.068;2023-10-31T13:35:59;2.00;;;1.90;;
4821;SDS011;2425;47.794;13.068;2023-10-31T13:38:25;3.53;;;1.40;;
4821;SDS011;2425;47.794;13.068;2023-10-31T13:40:53;4.00;;;1.53;;
4821;SDS011;2425;47.794;13.068;2023-10-31T13:43:20;1.83;;;1.60;;
4821;SDS011;2425;47.794;13.068;2023-10-31T13:45:47;1.67;;;1.57;;
4821;SDS011;2425;47.794;13.068;2023-10-31T13:48:14;1.77;;;1.67;;
4821;SDS011;2425;47.794;13.068;2023-10-31T13:50:40;1.87;;;1.57;;
4821;SDS011;2425;47.794;13.068;2023-10-31T13:53:07;1.67;;;1.57;;
4821;SDS011;2425;47.794;13.068;2023-10-31T13:55:34;5.73;;;1.73;;
4821;SDS011;2425;47.794;13.068;2023-10-31T13:58:03;1.73;;;1.63;;
4821;SDS011;2425;47.794;13.068;2023-10-31T14:00:30;1.50;;;1.40;;
4821;SDS011;2425;47.794;13.068;2023-10-31T14:02:56;1.57;;;1.50;;
4821;SDS011;2425;47.794;13.068;2023-10-31T14:05:23;2.20;;;2.00;;
4821;SDS011;2425;47.794;13.068;2023-10-31T14:07:50;1.50;;;1.40;;
4821;SDS011;2425;47.794;13.068;2023-10-31T14:10:17;1.50;;;1.40;;
4821;SDS011;2425;47.794;13.068;2023-10-31T14:12:44;2.40;;;2.30;;
4821;SDS011;2425;47.794;13.068;2023-10-31T14:15:13;2.03;;;1.83;;
4821;SDS011;2425;47.794;13.068;2023-10-31T14:17:40;3.13;;;1.90;;
4821;SDS011;2425;47.794;13.068;2023-10-31T14:20:07;2.03;;;1.93;;
4821;SDS011;2425;47.794;13.068;2023-10-31T14:22:34;1.70;;;1.63;;
4821;SDS011;2425;47.794;13.068;2023-10-31T14:25:01;2.07;;;1.97;;
4821;SDS011;2425;47.794;13.068;2023-10-31T14:27:29;3.37;;;2.00;;
4821;SDS011;2425;47.794;13.068;2023-10-31T14:29:56;3.43;;;2.73;;
4821;SDS011;2425;47.794;13.068;2023-10-31T14:32:24;1.70;;;1.70;;
4821;SDS011;2425;47.794;13.068;2023-10-31T14:34:51;1.80;;;1.70;;
4821;SDS011;2425;47.794;13.068;2023-10-31T14:37:18;2.63;;;2.10;;
4821;SDS011;2425;47.794;13.068;2023-10-31T14:39:44;3.43;;;2.27;;
4821;SDS011;2425;47.794;13.068;2023-10-31T14:42:11;2.40;;;2.20;;
4821;SDS011;2425;47.794;13.068;2023-10-31T14:44:38;2.33;;;2.23;;
4821;SDS011;2425;47.794;13.068;2023-10-31T14:47:04;1.97;;;1.87;;
4821;SDS011;2425;47.794;13.068;2023-10-31T14:49:32;1.80;;;1.70;;
4821;SDS011;2425;47.794;13.068;2023-10-31T14:51:59;1.90;;;1.90;;
4821;SDS011;2425;47.794;13.068;2023-10-31T14:54:26;2.33;;;2.20;;
4821;SDS011;2425;47.794;13.068;2023-10-31T14:56:53;2.47;;;2.13;;
4821;SDS011;2425;47.794;13.068;2023-10-31T14:59:19;2.13;;;2.03;;
4821;SDS011;2425;47.794;13.068;2023-10-31T15:01:46;2.43;;;2.33;;
4821;SDS011;2425;47.794;13.068;2023-10-31T15:04:13;2.50;;;2.30;;